Latest Weather Observations for Leonora Airport

IDW60801

Issued at 1:39 am WST Sunday 4 December 2016 (issued every 30 minutes, with the page automatically refreshed every 10 minutes)

About weather observations | Map of weather stations | Latest weather observations for WA | Other Formats
Station Details ID: 012241 Name: LEONORA AERO Lat: -28.88 Lon: 121.32 Height: 370.0 m
Data from the previous 72 hours. | See also: Recent months at Leonora Airport
Date/Time
WST
Temp
°C
App
Temp
°C
Dew
Point
°C
Rel
Hum
%
Delta-T
°C
Wind Press
QNH
hPa
Press
MSL
hPa
Rain since
9am
mm
Dir  Spd
km/h
Gust
km/h
Spd
kts
Gust
kts
04/01:30am 23.6 18.9 -2.1 18 11.5 S 13 17 7 9 1007.4 1004.9 0.0
04/01:00am 24.4 19.2 -3.0 16 12.1 S 15 20 8 11 1007.1 1004.6 0.0
04/12:30am 25.3 19.1 -3.2 15 12.6 S 20 32 11 17 1006.7 1004.3 0.0
04/12:00am 25.9 19.4 -5.6 12 13.5 S 20 32 11 17 1006.3 1003.9 0.0
 
Date/Time
WST
Temp
°C
App
Temp
°C
Dew
Point
°C
Rel
Hum
%
Delta-T
°C
Wind Press
QNH
hPa
Press
MSL
hPa
Rain since
9am
mm
Dir  Spd
km/h
Gust
km/h
Spd
kts
Gust
kts
03/11:30pm 26.5 21.0 -5.2 12 13.7 SSW 15 20 8 11 1006.6 1004.2 0.0
03/11:00pm 27.3 21.8 -5.7 11 14.2 S 15 20 8 11 1006.6 1004.2 0.0
03/10:30pm 28.8 22.5 -5.8 10 15.1 SSW 19 33 10 18 1006.4 1004.0 0.0
03/10:00pm 29.4 23.5 -5.4 10 15.4 SW 17 22 9 12 1006.2 1003.7 0.0
03/09:30pm 30.1 24.3 -4.8 10 15.6 SW 17 24 9 13 1005.8 1003.3 0.0
03/09:00pm 31.0 24.7 -4.1 10 16.1 SW 20 35 11 19 1005.2 1002.7 0.0
03/08:30pm 31.8 25.0 -4.9 9 16.6 SW 22 35 12 19 1004.6 1002.1 0.0
03/08:00pm 32.4 26.2 -3.1 10 16.7 SW 20 30 11 16 1003.9 1001.5 0.0
03/07:30pm 33.3 25.5 -3.8 9 17.3 SW 28 43 15 23 1003.3 1000.8 0.0
03/07:04pm 34.6 26.7 -4.4 8 18.2 WSW 28 46 15 25 1002.6 1000.1 0.0
03/07:00pm 34.8 26.6 -4.3 8 18.4 WSW 30 46 16 25 1002.5 1000.0 0.0
03/06:30pm 35.7 27.5 -3.6 8 18.7 WSW 30 48 16 26 1001.9 999.4 0.0
03/06:02pm 37.0 28.2 -4.4 7 19.6 WSW 33 52 18 28 1001.6 999.1 0.0
03/06:00pm 37.1 28.3 -4.4 7 19.8 WSW 33 48 18 26 1001.5 999.0 0.0
03/05:35pm 37.2 27.4 -6.3 6 20.1 WSW 37 56 20 30 1001.2 998.6 0.0
03/05:30pm 37.3 27.2 -6.3 6 20.1 WSW 39 54 21 29 1001.2 998.6 0.0
03/05:17pm 38.0 29.2 -5.8 6 20.5 WSW 32 52 17 28 1000.8 998.3 0.0
03/05:00pm 39.1 30.2 -5.0 6 21.1 WSW 33 50 18 27 1000.7 998.2 0.0
03/04:30pm 39.2 29.7 -7.3 5 21.4 W 35 54 19 29 1000.4 997.9 0.0
03/04:05pm 39.5 29.3 -7.1 5 21.6 WSW 39 57 21 31 1000.4 997.9 0.0
03/04:00pm 39.5 28.9 -7.1 5 21.7 W 41 57 22 31 1000.4 997.9 0.0
03/03:30pm 40.2 30.8 -6.6 5 21.9 WSW 35 59 19 32 1000.6 998.1 0.0
03/03:00pm 39.3 30.6 -4.8 6 21.2 W 32 52 17 28 1001.0 998.5 0.0
03/02:30pm 40.7 31.2 -3.9 6 21.8 W 37 59 20 32 1001.5 999.0 0.0
03/02:16pm 40.1 29.4 -4.3 6 21.5 W 43 65 23 35 1001.5 999.0 0.0
03/02:12pm 39.9 30.3 -4.4 6 21.4 W 37 63 20 34 1001.5 999.0 0.0
03/02:00pm 40.1 29.8 -4.3 6 21.6 WNW 41 65 22 35 1001.5 999.0 0.0
03/01:30pm 40.7 30.4 -3.9 6 21.8 WNW 41 65 22 35 1001.9 999.4 0.0
03/01:29pm 40.5 30.2 -4.0 6 21.7 WNW 41 65 22 35 1001.8 999.3 0.0
03/01:27pm 40.6 30.3 -3.9 6 21.8 WNW 41 56 22 30 1001.8 999.3 0.0
03/01:24pm 40.6 30.3 -3.9 6 21.8 W 41 56 22 30 1001.8 999.3 0.0
03/01:00pm 40.4 30.5 -4.1 6 21.8 W 39 57 21 31 1002.0 999.5 0.0
03/12:30pm 40.5 30.6 -4.0 6 21.7 WNW 39 57 21 31 1002.4 999.9 0.0
03/12:25pm 40.2 30.3 -4.2 6 21.6 WNW 39 59 21 32 1002.4 999.9 0.0
03/12:23pm 39.9 29.9 -4.4 6 21.4 WNW 39 59 21 32 1002.5 1000.0 0.0
03/12:08pm 40.4 30.5 -4.1 6 21.7 WNW 39 61 21 33 1002.6 1000.1 0.0
03/12:06pm 40.2 31.0 -4.2 6 21.6 WNW 35 50 19 27 1002.6 1000.1 0.0
03/12:00pm 40.6 31.1 -3.9 6 21.9 WNW 37 54 20 29 1002.7 1000.2 0.0
03/11:42am 40.0 31.6 -2.3 7 21.1 NW 32 48 17 26 1002.8 1000.3 0.0
03/11:37am 40.1 31.5 -4.3 6 21.5 WNW 32 44 17 24 1002.8 1000.3 0.0
03/11:30am 39.3 31.9 -1.0 8 20.4 W 28 43 15 23 1003.0 1000.5 0.0
03/11:17am 39.7 32.3 -0.7 8 20.6 WNW 28 48 15 26 1003.2 1000.7 0.0
03/11:14am 39.4 31.6 -0.9 8 20.5 WNW 30 48 16 26 1003.1 1000.6 0.0
03/11:13am 39.9 32.1 -0.5 8 20.7 W 30 48 16 26 1003.1 1000.6 0.0
03/11:00am 39.8 32.6 -2.4 7 21.1 WNW 26 44 14 24 1003.3 1000.8 0.0
03/10:30am 38.6 31.3 0.1 9 19.8 WNW 28 43 15 23 1003.6 1001.1 0.0
03/10:00am 37.7 32.1 3.4 12 18.5 W 22 32 12 17 1003.7 1001.2 0.0
03/09:30am 36.9 32.0 5.0 14 17.5 NW 20 32 11 17 1004.1 1001.6 0.0
03/09:00am 36.0 30.4 5.3 15 16.9 NNW 24 41 13 22 1004.2 1001.7 0.0
03/08:30am 35.1 30.1 6.4 17 16.0 NNW 22 33 12 18 1004.3 1001.8 0.0
03/08:00am 33.7 29.2 6.9 19 15.0 NNW 20 28 11 15 1004.5 1002.0 0.0
03/07:30am 31.9 28.1 7.5 22 13.6 N 17 24 9 13 1004.6 1002.1 0.0
03/07:00am 30.2 27.5 7.4 24 12.6 NNE 11 17 6 9 1004.6 1002.1 0.0
03/06:30am 28.3 24.9 7.5 27 11.4 ENE 15 20 8 11 1004.5 1002.0 0.0
03/06:00am 27.3 24.7 7.7 29 10.7 E 11 17 6 9 1004.5 1002.0 0.0
03/05:30am 26.2 23.9 7.3 30 10.2 E 9 13 5 7 1004.1 1001.6 0.0
03/05:00am 25.6 22.9 7.2 31 9.9 E 11 15 6 8 1003.7 1001.2 0.0
03/04:30am 25.9 23.5 7.0 30 10.1 E 9 11 5 6 1003.8 1001.4 0.0
03/04:00am 26.6 23.5 7.1 29 10.5 NE 13 20 7 11 1003.7 1001.2 0.0
03/03:30am 27.1 23.2 7.0 28 10.8 NE 17 26 9 14 1003.7 1001.2 0.0
03/03:00am 27.5 22.3 7.4 28 11.0 NE 24 33 13 18 1003.8 1001.4 0.0
03/02:30am 27.8 23.3 7.1 27 11.2 NE 20 32 11 17 1004.1 1001.6 0.0
03/02:00am 28.1 23.7 7.4 27 11.3 NE 20 32 11 17 1004.4 1001.9 0.0
03/01:30am 28.3 24.0 7.0 26 11.5 NE 19 26 10 14 1004.8 1002.3 0.0
03/01:00am 28.7 24.3 7.3 26 11.7 ENE 20 26 11 14 1005.0 1002.5 0.0
03/12:30am 28.9 24.5 7.5 26 11.7 ENE 20 30 11 16 1005.2 1002.7 0.0
03/12:00am 29.2 24.4 7.2 25 12.1 ENE 22 28 12 15 1005.3 1002.8 0.0
 
Date/Time
WST
Temp
°C
App
Temp
°C
Dew
Point
°C
Rel
Hum
%
Delta-T
°C
Wind Press
QNH
hPa
Press
MSL
hPa
Rain since
9am
mm
Dir  Spd
km/h
Gust
km/h
Spd
kts
Gust
kts
02/11:30pm 29.4 25.0 6.7 24 12.3 ENE 19 24 10 13 1005.3 1002.8 0.0
02/11:00pm 29.4 24.9 6.1 23 12.6 E 19 24 10 13 1005.6 1003.1 0.0
02/10:30pm 29.6 25.9 6.3 23 12.6 E 15 19 8 10 1005.8 1003.3 0.0
02/10:00pm 29.9 26.5 5.9 22 12.9 E 13 17 7 9 1006.0 1003.5 0.0
02/09:30pm 30.4 26.6 5.6 21 13.3 E 15 19 8 10 1006.0 1003.5 0.0
02/09:00pm 30.9 26.8 4.6 19 13.9 ESE 15 20 8 11 1006.1 1003.6 0.0
02/08:30pm 30.8 27.7 3.8 18 14.1 ESE 9 15 5 8 1005.9 1003.4 0.0
02/08:00pm 31.8 28.2 2.9 16 15.0 SE 11 13 6 7 1005.7 1003.2 0.0
02/07:30pm 32.3 29.5 3.3 16 15.1 SE 7 9 4 5 1005.6 1003.1 0.0
02/07:00pm 33.2 30.0 3.1 15 15.8 ESE 9 11 5 6 1005.6 1003.1 0.0
02/06:30pm 34.2 31.2 1.9 13 16.6 SSE 7 11 4 6 1005.5 1003.0 0.0
02/06:00pm 35.1 32.2 2.6 13 17.1 SE 7 13 4 7 1005.5 1003.0 0.0
02/05:30pm 35.2 31.2 2.6 13 17.1 ESE 13 20 7 11 1005.5 1003.0 0.0
02/05:00pm 35.2 31.9 2.6 13 17.1 SSE 9 20 5 11 1005.6 1003.1 0.0
02/04:30pm 35.1 31.6 3.6 14 16.8 SE 11 17 6 9 1005.8 1003.3 0.0
02/04:00pm 35.1 32.2 2.6 13 17.1 SW 7 13 4 7 1006.1 1003.6 0.0
02/03:30pm 35.4 32.7 3.9 14 16.9 WSW 7 15 4 8 1006.3 1003.9 0.0
02/03:00pm 34.1 32.2 4.7 16 15.9 SE 4 11 2 6 1006.6 1004.2 0.0
02/02:30pm 34.7 31.1 5.2 16 16.1 NE 13 24 7 13 1007.1 1004.6 0.0
02/02:00pm 33.7 30.3 6.1 18 15.2 ESE 13 26 7 14 1007.7 1005.2 0.0
02/01:30pm 32.9 29.6 6.2 19 14.6 E 13 24 7 13 1008.1 1005.6 0.0
02/01:00pm 31.8 28.6 6.8 21 13.8 ESE 13 24 7 13 1008.7 1006.3 0.0
02/12:30pm 31.6 28.1 7.3 22 13.5 E 15 26 8 14 1009.3 1006.9 0.0
02/12:00pm 30.8 26.9 7.3 23 13.0 E 17 24 9 13 1009.8 1007.3 0.0
02/11:30am 28.8 25.3 7.4 26 11.7 ENE 15 28 8 15 1010.5 1008.0 0.0
02/11:00am 28.5 24.2 7.1 26 11.6 ENE 19 32 10 17 1010.7 1008.2 0.0
02/10:30am 27.4 23.1 7.8 29 10.7 ENE 20 32 11 17 1011.1 1008.6 0.0
02/10:00am 26.2 21.9 7.7 31 10.0 ENE 20 32 11 17 1011.4 1009.0 0.0
02/09:30am 25.1 19.7 8.1 34 9.2 E 26 33 14 18 1011.8 1009.4 0.0
02/09:00am 24.2 19.2 8.2 36 8.7 ENE 24 33 13 18 1012.2 1009.8 0.0
02/08:30am 22.4 17.0 7.8 39 7.8 E 26 41 14 22 1012.4 1010.0 0.0
02/08:00am 21.9 16.6 8.4 42 7.2 E 26 39 14 21 1012.6 1010.1 0.0
02/07:30am 20.7 14.6 8.4 45 6.6 E 30 46 16 25 1012.8 1010.3 0.0
02/07:27am 21.0 15.4 8.6 45 6.6 E 28 46 15 25 1012.7 1010.2 0.0
02/07:00am 20.2 14.5 8.2 46 6.4 E 28 39 15 21 1012.4 1010.0 0.0
02/06:30am 19.4 13.3 8.4 49 5.8 E 30 43 16 23 1012.4 1010.0 0.0
02/06:00am 19.1 13.7 8.1 49 5.8 E 26 39 14 21 1012.3 1009.9 0.0
02/05:30am 18.8 13.8 8.2 50 5.6 E 24 33 13 18 1012.1 1009.7 0.0
02/05:00am 18.6 13.7 8.3 51 5.4 E 24 35 13 19 1011.6 1009.2 0.0
02/04:30am 19.1 14.2 8.4 50 5.6 ESE 24 39 13 21 1011.4 1009.0 0.0
02/04:00am 19.4 14.1 8.4 49 5.8 E 26 39 14 21 1011.0 1008.5 0.0
02/03:30am 19.7 14.4 8.4 48 6.0 ESE 26 35 14 19 1010.8 1008.3 0.0
02/03:00am 20.3 14.7 8.6 47 6.2 ESE 28 44 15 24 1010.4 1007.9 0.0
02/02:30am 21.1 14.7 8.4 44 6.8 ESE 32 43 17 23 1010.0 1007.5 0.0
02/02:00am 22.1 16.7 8.2 41 7.4 ESE 26 41 14 22 1009.5 1007.1 0.0
02/01:30am 22.9 17.5 7.8 38 8.1 ESE 26 43 14 23 1009.3 1006.9 0.0
02/01:00am 22.8 17.6 8.9 41 7.6 SE 26 39 14 21 1009.2 1006.8 0.0
02/12:30am 23.2 16.9 8.9 40 7.8 SE 32 48 17 26 1009.4 1007.0 0.0
02/12:19am 23.7 17.4 8.9 39 8.1 ESE 32 50 17 27 1009.4 1007.0 0.0
02/12:00am 25.2 19.0 7.8 33 9.4 ESE 30 46 16 25 1009.3 1006.9 0.0
 
Date/Time
WST
Temp
°C
App
Temp
°C
Dew
Point
°C
Rel
Hum
%
Delta-T
°C
Wind Press
QNH
hPa
Press
MSL
hPa
Rain since
9am
mm
Dir  Spd
km/h
Gust
km/h
Spd
kts
Gust
kts
01/11:30pm 27.4 21.4 5.1 24 11.6 SE 26 39 14 21 1008.9 1006.5 0.0
01/11:00pm 28.0 23.2 5.6 24 11.9 ESE 20 28 11 15 1008.8 1006.4 0.0
01/10:30pm 28.3 23.6 5.2 23 12.1 SE 19 24 10 13 1009.0 1006.6 0.0
01/10:00pm 28.8 24.1 5.0 22 12.5 SE 19 24 10 13 1009.0 1006.6 0.0
01/09:30pm 29.3 24.9 4.7 21 12.9 SE 17 24 9 13 1008.9 1006.5 0.0
01/09:00pm 29.7 25.4 5.1 21 13.0 SE 17 20 9 11 1008.9 1006.5 0.0
01/08:30pm 30.3 25.5 4.9 20 13.4 SE 19 26 10 14 1008.8 1006.4 0.0
01/08:00pm 30.7 27.0 4.4 19 13.9 SE 13 22 7 12 1008.6 1006.1 0.0
01/07:30pm 31.1 27.3 4.0 18 14.2 SSE 13 17 7 9 1008.4 1005.9 0.0
01/07:00pm 31.9 27.3 3.8 17 14.8 SSE 17 26 9 14 1008.1 1005.6 0.0
01/06:30pm 32.5 28.0 4.3 17 15.0 SSE 17 24 9 13 1007.7 1005.2 0.0
01/06:00pm 33.7 29.2 4.4 16 15.7 SSE 17 26 9 14 1007.3 1004.8 0.0
01/05:30pm 33.8 28.8 3.6 15 16.0 SSE 19 28 10 15 1007.0 1004.5 0.0
01/05:00pm 34.4 30.8 3.1 14 16.5 S 11 20 6 11 1006.7 1004.3 0.0
01/04:30pm 34.9 29.9 3.5 14 16.7 SSE 19 28 10 15 1006.9 1004.4 0.0
01/04:00pm 35.2 31.7 3.7 14 16.8 S 11 19 6 10 1007.0 1004.5 0.0
01/03:30pm 34.7 30.4 3.3 14 16.6 SW 15 28 8 15 1007.3 1004.8 0.0
01/03:00pm 35.5 33.0 4.9 15 16.7 SSE 7 17 4 9 1007.6 1005.1 0.0
01/02:30pm 35.0 31.3 4.5 15 16.4 SSW 13 22 7 12 1007.8 1005.3 0.0
01/02:00pm 34.1 29.9 5.6 17 15.6 ESE 17 30 9 16 1008.0 1005.5 0.0
01/01:30pm 33.6 30.6 6.0 18 15.1 SW 11 20 6 11 1008.4 1005.9 0.0
01/01:00pm 33.2 29.0 5.7 18 15.0 SSW 17 30 9 16 1008.6 1006.1 0.0
01/12:30pm 32.6 29.4 6.7 20 14.3 S 13 24 7 13 1008.9 1006.5 0.0
01/12:00pm 32.6 29.3 8.1 22 13.8 ESE 15 20 8 11 1009.3 1006.9 0.0
01/11:30am 31.0 28.1 8.1 24 12.8 SSE 13 26 7 14 1009.8 1007.3 0.0
01/11:00am 30.9 27.7 8.6 25 12.6 SSE 15 26 8 14 1010.1 1007.6 0.0
01/10:30am 29.9 26.8 8.9 27 11.8 SE 15 24 8 13 1010.5 1008.0 0.0
01/10:00am 29.0 25.1 8.7 28 11.4 SE 19 26 10 14 1010.8 1008.3 0.0
01/09:30am 28.0 24.4 8.3 29 10.9 SE 17 26 9 14 1010.9 1008.4 0.0
01/09:00am 26.1 21.6 8.6 33 9.6 SSE 22 32 12 17 1010.9 1008.4 0.0
01/08:30am 26.3 22.3 9.2 34 9.5 SE 20 32 11 17 1011.0 1008.5 0.0
01/08:00am 24.5 19.6 8.5 36 8.7 SSE 24 35 13 19 1010.9 1008.4 0.0
01/07:30am 24.4 19.6 8.8 37 8.5 SE 24 35 13 19 1010.9 1008.9 0.0
01/07:00am 23.4 18.5 8.3 38 8.2 SSE 24 33 13 18 1010.8 1008.8 0.0
01/06:30am 23.0 18.0 7.9 38 8.1 SSE 24 33 13 18 1010.5 1008.5 0.0
01/06:00am 23.1 17.9 7.2 36 8.4 SSE 24 35 13 19 1010.1 1008.1 0.0
01/05:30am 23.8 19.0 7.4 35 8.7 SSE 22 32 12 17 1009.4 1007.4 0.0
01/05:00am 23.4 20.4 7.5 36 8.5 SSE 13 19 7 10 1009.1 1007.1 0.0
01/04:30am 23.3 21.0 7.4 36 8.4 SSE 9 13 5 7 1008.6 1006.6 0.0
01/04:00am 23.5 20.3 6.7 34 8.8 S 13 17 7 9 1008.3 1006.3 0.0
01/03:30am 24.0 21.1 6.3 32 9.2 S 11 17 6 9 1008.1 1006.1 0.0
01/03:00am 24.0 21.3 5.4 30 9.6 S 9 11 5 6 1008.0 1006.0 0.0
01/02:30am 24.4 21.6 5.2 29 9.9 S 9 13 5 7 1007.9 1005.9 0.0
01/02:00am 24.8 22.1 5.6 29 10.0 S 9 13 5 7 1007.7 1005.7 0.0

Other Formats:

Comma delimited format used in spreadsheet applications
http://www.bom.gov.au/fwo/IDW60801/IDW60801.94450.axf

JavaScript Object Notation format (JSON) in row-major order
http://www.bom.gov.au/fwo/IDW60801/IDW60801.94450.json